Time;durP1;ratioP1;P1;durP2;ratioP2;P2;SDS_P1;SDS_P2;PMS_P1;PMS_P2;Temp;Humidity;BMP_temperature;BMP_pressure;BME280_temperature;BME280_humidity;BME280_pressure;Samples;Min_cycle;Max_cycle;Signal;HPM_P1;HPM_P2
2023/11/04 07:00:43;;;;;;;2.22;1.58;;;;;;;3.71;100.00;94223.16;2099714;27;20573;-62
2023/11/04 07:02:56;;;;;;;8.13;1.55;;;;;;;4.14;98.57;94226.78;2081789;28;20573;-62
2023/11/04 07:03:58;;;;;;;2.00;1.30;;;;;;;4.64;96.35;94209.22;2079249;28;20194;-62
2023/11/04 07:05:00;;;;;;;2.20;1.23;;;;;;;4.66;94.46;94215.97;2076068;28;20201;-62
2023/11/04 07:08:32;;;;;;;2.97;1.10;;;;;;;4.71;93.30;94195.84;2083882;28;20947;-62
2023/11/04 07:09:34;;;;;;;3.33;1.50;;;;;;;5.43;91.28;94187.09;2081231;28;20621;-62
2023/11/04 07:10:37;;;;;;;1.60;1.00;;;;;;;5.97;88.72;94186.22;2082637;28;20188;-63
2023/11/04 07:11:43;;;;;;;1.52;0.80;;;;;;;6.11;86.94;94193.13;2081757;28;20292;-63
2023/11/04 07:12:45;;;;;;;2.40;0.90;;;;;;;6.80;84.72;94181.63;2079895;28;20662;-62
2023/11/04 07:13:46;;;;;;;2.35;1.10;;;;;;;7.01;83.39;94189.69;2072879;28;20213;-63
2023/11/04 07:14:49;;;;;;;3.15;0.90;;;;;;;7.37;82.07;94176.81;2073641;28;20277;-63
2023/11/04 07:15:51;;;;;;;1.50;0.90;;;;;;;7.70;80.62;94186.53;2073841;28;20216;-63
2023/11/04 07:16:55;;;;;;;2.65;1.08;;;;;;;8.28;77.61;94178.84;2073429;28;20197;-63
2023/11/04 07:17:57;;;;;;;2.40;1.10;;;;;;;7.74;77.99;94184.56;2074721;28;20264;-63
2023/11/04 07:18:59;;;;;;;1.40;0.90;;;;;;;8.04;78.24;94170.25;2074357;28;20237;-62
2023/11/04 07:20:00;;;;;;;1.50;0.93;;;;;;;-145.49;100.00;55703.94;2075197;28;20292;-63
2023/11/04 07:21:04;;;;;;;1.90;1.00;;;;;;;7.86;77.98;94178.47;2075407;28;20254;-62
2023/11/04 07:22:05;;;;;;;1.88;1.00;;;;;;;8.46;76.97;94175.84;2074403;28;20194;-62
2023/11/04 07:23:13;;;;;;;3.40;1.00;;;;;;;7.99;77.99;94181.81;2073218;28;20300;-62
2023/11/04 07:24:14;;;;;;;2.65;1.10;;;;;;;8.12;76.64;94186.13;2074339;28;20347;-62
2023/11/04 07:25:16;;;;;;;2.53;1.15;;;;;;;8.68;75.98;94179.41;2072418;28;20263;-62
2023/11/04 07:26:17;;;;;;;1.85;1.00;;;;;;;7.51;77.54;94184.44;2071570;28;20186;-62
2023/11/04 07:27:19;;;;;;;1.63;0.85;;;;;;;7.73;78.65;94172.50;2076005;28;20268;-62
2023/11/04 07:28:22;;;;;;;4.82;0.98;;;;;;;8.43;76.59;94173.41;2071977;28;20673;-63
2023/11/04 07:29:23;;;;;;;2.17;0.85;;;;;;;8.89;75.36;94172.53;2073534;28;20225;-62
2023/11/04 07:30:25;;;;;;;2.70;1.45;;;;;;;8.07;76.73;94167.44;2072609;28;20197;-62
2023/11/04 07:31:27;;;;;;;2.17;1.00;;;;;;;7.84;77.98;94165.56;2072128;28;20189;-62
2023/11/04 07:32:29;;;;;;;3.45;0.75;;;;;;;7.82;77.39;94153.63;2071348;28;20251;-62
2023/11/04 07:33:31;;;;;;;3.10;0.90;;;;;;;8.17;77.18;94160.59;2071796;28;20194;-62
2023/11/04 07:34:33;;;;;;;3.70;1.02;;;;;;;7.91;77.33;94167.72;2072436;28;20229;-62
2023/11/04 07:35:35;;;;;;;1.75;0.70;;;;;;;8.16;76.85;94162.38;2073196;28;20197;-62
2023/11/04 07:36:37;;;;;;;1.70;0.80;;;;;;;8.17;77.29;94156.22;2074038;28;20190;-62
2023/11/04 07:37:38;;;;;;;4.53;0.85;;;;;;;8.16;76.57;94159.78;2073571;28;20580;-62
2023/11/04 07:38:40;;;;;;;1.63;0.73;;;;;;;7.95;77.77;94153.59;2071591;28;20190;-62
2023/11/04 07:39:41;;;;;;;2.80;0.88;;;;;;;8.18;76.50;94155.28;2081946;28;20647;-62
2023/11/04 07:40:43;;;;;;;2.30;1.00;;;;;;;8.06;76.56;94157.97;2078476;28;20221;-62
2023/11/04 07:41:45;;;;;;;2.67;0.90;;;;;;;8.71;75.31;94147.94;2071151;28;20591;-62
2023/11/04 07:42:46;;;;;;;3.25;0.82;;;;;;;8.98;74.71;94156.19;2072443;28;20198;-62
2023/11/04 07:43:48;;;;;;;1.48;0.70;;;;;;;8.36;75.43;94149.66;2072868;28;20522;-62
2023/11/04 07:44:50;;;;;;;2.20;0.90;;;;;;;9.13;73.59;94138.56;2073912;28;20228;-62
2023/11/04 07:45:52;;;;;;;2.47;0.68;;;;;;;8.49;74.84;94144.38;2073757;28;20193;-62
2023/11/04 07:46:53;;;;;;;1.40;0.70;;;;;;;8.60;75.12;94139.19;2073419;28;20209;-62
2023/11/04 07:47:55;;;;;;;1.20;0.60;;;;;;;8.69;74.88;94142.84;2073306;28;20225;-62
2023/11/04 07:48:56;;;;;;;3.45;0.70;;;;;;;8.68;74.23;94135.16;2074019;28;20229;-62
2023/11/04 07:49:58;;;;;;;2.85;0.70;;;;;;;8.79;73.65;94137.78;2069930;28;20197;-62
2023/11/04 07:50:59;;;;;;;2.17;0.80;;;;;;;8.89;72.86;94137.88;2072925;28;20209;-62
2023/11/04 07:52:01;;;;;;;1.50;0.80;;;;;;;8.93;72.90;94134.91;2072727;28;20267;-62
2023/11/04 07:53:02;;;;;;;1.17;0.65;;;;;;;8.60;73.94;94128.78;2070697;28;20893;-62
2023/11/04 07:54:05;;;;;;;1.65;0.60;;;;;;;8.44;74.79;94131.72;2074336;28;20233;-62
2023/11/04 07:55:10;;;;;;;2.65;0.80;;;;;;;8.30;75.13;94130.16;2074123;28;20281;-62
2023/11/04 07:56:12;;;;;;;6.57;0.90;;;;;;;7.85;75.97;94132.66;2074546;28;20201;-62
2023/11/04 07:57:13;;;;;;;3.50;0.63;;;;;;;7.70;76.60;94134.59;2073757;28;20250;-62
2023/11/04 07:58:14;;;;;;;1.80;0.70;;;;;;;7.31;77.72;94132.19;2074554;28;20271;-62
2023/11/04 07:59:16;;;;;;;1.25;0.60;;;;;;;7.16;78.49;94130.66;2074984;28;20251;-62
2023/11/04 08:00:18;;;;;;;1.42;0.80;;;;;;;6.76;80.54;94133.50;2075049;28;20229;-62
2023/11/04 08:01:19;;;;;;;2.33;0.80;;;;;;;6.94;80.06;94133.97;2072942;28;20454;-69
2023/11/04 08:02:21;;;;;;;1.60;0.80;;;;;;;7.29;79.69;94147.03;2070389;28;20194;-68
2023/11/04 08:03:23;;;;;;;3.25;0.90;;;;;;;8.00;77.66;94138.47;2071769;28;20754;-69
2023/11/04 08:04:26;;;;;;;1.70;0.80;;;;;;;8.62;75.46;94132.09;2072625;28;20189;-69
2023/11/04 08:05:28;;;;;;;6.90;1.00;;;;;;;9.27;73.76;94127.06;2072230;28;20197;-69
2023/11/04 08:06:29;;;;;;;1.48;0.73;;;;;;;9.74;71.72;94126.78;2074041;28;20750;-69
2023/11/04 08:07:31;;;;;;;1.30;0.73;;;;;;;9.84;70.30;94123.41;2071311;28;20280;-68
2023/11/04 08:08:33;;;;;;;2.58;0.80;;;;;;;9.40;71.35;94128.69;2073481;28;20213;-69
2023/11/04 08:09:35;;;;;;;3.45;1.00;;;;;;;9.91;70.15;94116.75;2074033;28;20194;-69
2023/11/04 08:10:37;;;;;;;1.70;0.85;;;;;;;9.77;70.55;94125.72;2073515;28;20190;-70
2023/11/04 08:11:38;;;;;;;1.50;0.70;;;;;;;10.05;69.32;94120.84;2073850;28;20209;-69
2023/11/04 08:12:40;;;;;;;2.65;0.77;;;;;;;10.70;100.00;94120.66;2071721;28;20202;-70
2023/11/04 08:13:41;;;;;;;2.53;0.73;;;;;;;-145.49;100.00;55703.94;2072727;28;20269;-69
2023/11/04 08:14:43;;;;;;;1.83;0.80;;;;;;;10.62;66.62;94116.09;2073232;28;20615;-70
2023/11/04 08:15:44;;;;;;;3.92;1.17;;;;;;;10.67;67.02;94123.56;2073528;28;20712;-69
2023/11/04 08:16:46;;;;;;;1.38;0.80;;;;;;;11.08;66.74;94119.16;2074318;28;20231;-70
2023/11/04 08:17:47;;;;;;;1.65;0.70;;;;;;;-145.49;100.00;55703.94;2072218;28;20204;-70
2023/11/04 08:18:49;;;;;;;1.95;0.70;;;;;;;10.09;67.83;94102.22;2073716;28;20817;-70
2023/11/04 08:19:51;;;;;;;3.15;0.80;;;;;;;9.45;69.73;94103.09;2067476;28;20238;-69
2023/11/04 08:20:52;;;;;;;1.65;0.60;;;;;;;9.44;71.19;94099.66;2068993;28;20190;-70
2023/11/04 08:21:54;;;;;;;4.10;0.90;;;;;;;9.18;71.82;94095.69;2069392;28;20200;-70
2023/11/04 08:22:55;;;;;;;1.30;0.70;;;;;;;8.61;73.56;94101.00;2068666;28;20621;-69
2023/11/04 08:23:58;;;;;;;1.80;0.80;;;;;;;7.99;74.85;94096.06;2065920;28;20225;-69
2023/11/04 08:25:00;;;;;;;2.30;0.75;;;;;;;7.57;76.27;94110.44;2069037;28;20229;-69
2023/11/04 08:26:01;;;;;;;1.30;0.70;;;;;;;7.58;76.94;94102.56;2068453;28;20202;-69
2023/11/04 08:27:03;;;;;;;1.95;0.80;;;;;;;7.77;76.79;94099.44;2068422;28;20281;-69
2023/11/04 08:28:04;;;;;;;1.45;0.70;;;;;;;7.67;77.10;94094.09;2064219;28;20369;-69
2023/11/04 08:29:06;;;;;;;3.10;0.85;;;;;;;7.80;76.90;94088.81;2066165;28;20217;-69
2023/11/04 08:30:08;;;;;;;2.25;0.85;;;;;;;7.70;76.64;94098.22;2068238;28;20238;-69
2023/11/04 08:31:10;;;;;;;1.70;0.73;;;;;;;7.70;76.86;94092.22;2068681;28;20666;-69
2023/11/04 08:32:11;;;;;;;1.63;0.70;;;;;;;7.43;78.53;94101.09;2067867;28;20198;-69
2023/11/04 08:33:13;;;;;;;2.53;0.80;;;;;;;7.37;78.04;94101.53;2066217;28;20214;-68
2023/11/04 08:34:15;;;;;;;7.97;1.00;;;;;;;7.30;78.18;94095.94;2068165;28;20212;-68
2023/11/04 08:35:17;;;;;;;5.30;0.80;;;;;;;7.26;78.44;94091.91;2065175;28;20290;-68
2023/11/04 08:36:19;;;;;;;1.35;0.70;;;;;;;7.05;78.90;94092.53;2068650;28;20221;-70
2023/11/04 08:37:21;;;;;;;5.10;1.00;;;;;;;6.88;79.91;94080.72;2068903;28;20197;-69
2023/11/04 08:38:23;;;;;;;2.58;0.82;;;;;;;7.09;79.87;94080.16;2065599;28;20331;-68
2023/11/04 08:39:25;;;;;;;1.83;0.88;;;;;;;7.25;78.84;94080.72;2067493;28;20323;-68
2023/11/04 08:40:26;;;;;;;8.27;1.00;;;;;;;7.01;79.21;94080.72;2067212;28;20629;-69
2023/11/04 08:41:28;;;;;;;7.90;0.95;;;;;;;7.36;79.12;94074.72;2068180;28;20196;-69
2023/11/04 08:42:29;;;;;;;4.20;0.80;;;;;;;7.56;78.19;94072.44;2066905;28;20198;-70
2023/11/04 08:43:31;;;;;;;4.20;0.73;;;;;;;7.84;76.97;94066.84;2066549;28;20560;-68
2023/11/04 08:44:32;;;;;;;2.00;0.80;;;;;;;7.88;77.71;94062.25;2067539;28;20182;-69
2023/11/04 08:45:34;;;;;;;4.20;1.38;;;;;;;7.98;75.95;94059.78;2069924;28;20195;-70
2023/11/04 08:46:36;;;;;;;1.95;0.70;;;;;;;8.53;75.52;94075.56;2068750;28;20677;-69
2023/11/04 08:47:37;;;;;;;2.85;0.70;;;;;;;9.62;72.42;94073.06;2066327;28;20198;-68
2023/11/04 08:48:40;;;;;;;1.60;0.80;;;;;;;10.16;70.73;94070.38;2069424;28;20190;-70
2023/11/04 08:49:42;;;;;;;2.38;0.70;;;;;;;10.82;69.39;94070.03;2068748;28;20293;-70
2023/11/04 08:50:44;;;;;;;1.88;0.68;;;;;;;11.09;66.84;94064.16;2067695;28;20190;-69
2023/11/04 08:51:46;;;;;;;1.20;0.70;;;;;;;11.08;67.67;94070.38;2065950;28;20187;-69
2023/11/04 08:52:47;;;;;;;1.55;0.77;;;;;;;10.32;68.76;94060.31;2067718;28;20562;-70
2023/11/04 08:53:48;;;;;;;5.60;0.80;;;;;;;9.66;69.84;94066.63;2067528;28;20205;-69
2023/11/04 08:54:50;;;;;;;26.35;1.30;;;;;;;8.70;73.61;94063.00;2067737;28;20611;-70
2023/11/04 08:55:52;;;;;;;2.53;0.80;;;;;;;9.01;73.53;94060.63;2067939;28;20203;-72
2023/11/04 08:56:53;;;;;;;2.13;0.90;;;;;;;9.43;73.90;94061.53;2068871;28;20194;-72
2023/11/04 08:57:55;;;;;;;1.50;0.80;;;;;;;9.85;70.89;94058.13;2068464;28;20307;-71
2023/11/04 08:58:57;;;;;;;1.95;0.90;;;;;;;10.45;68.67;94055.75;2068702;28;20546;-71
2023/11/04 09:00:00;;;;;;;2.08;0.90;;;;;;;10.29;68.25;94063.19;2070040;28;20314;-69
2023/11/04 09:01:02;;;;;;;1.70;0.77;;;;;;;10.59;68.22;94043.31;2067077;28;20750;-69
2023/11/04 09:02:03;;;;;;;1.67;0.90;;;;;;;10.66;68.11;94041.81;2066831;28;20199;-69
2023/11/04 09:03:07;;;;;;;1.63;0.80;;;;;;;10.64;66.60;94041.13;2067620;28;20265;-69
2023/11/04 09:04:11;;;;;;;1.80;0.82;;;;;;;10.78;66.56;94032.09;2064228;28;20202;-69
2023/11/04 09:05:27;;;;;;;5.50;0.70;;;;;;;10.66;66.98;94041.81;2067542;28;20213;-71
2023/11/04 09:06:34;;;;;;;1.70;0.80;;;;;;;11.30;66.13;94031.06;2067058;28;20231;-71
2023/11/04 09:07:36;;;;;;;2.63;0.80;;;;;;;11.95;64.22;94027.84;2067587;28;20305;-71
2023/11/04 09:08:38;;;;;;;1.60;0.80;;;;;;;11.80;64.36;94027.50;2066131;28;20195;-71
2023/11/04 09:09:40;;;;;;;1.55;0.80;;;;;;;11.30;64.49;94031.06;2066566;28;20191;-71
2023/11/04 09:10:42;;;;;;;2.40;0.90;;;;;;;10.13;67.34;94027.13;2066644;28;20196;-72
2023/11/04 09:11:43;;;;;;;4.22;1.20;;;;;;;9.56;69.90;94035.31;2066064;28;20214;-71
2023/11/04 09:12:46;;;;;;;3.47;1.10;;;;;;;9.09;70.80;94030.41;2067569;28;20280;-71
2023/11/04 09:13:47;;;;;;;2.17;1.00;;;;;;;9.09;72.05;94026.97;2068082;28;20191;-71
2023/11/04 09:14:49;;;;;;;4.03;1.00;;;;;;;9.02;72.28;94023.22;2068540;28;20232;-71
2023/11/04 09:15:50;;;;;;;3.42;1.10;;;;;;;9.24;71.94;94023.16;2067137;28;20206;-72
2023/11/04 09:16:52;;;;;;;3.50;0.90;;;;;;;9.10;72.47;94015.59;2066337;28;20198;-71
2023/11/04 09:17:53;;;;;;;8.27;0.90;;;;;;;8.98;72.50;94007.84;2066808;28;20225;-72
2023/11/04 09:18:55;;;;;;;3.05;0.90;;;;;;;8.65;73.20;94022.59;2067683;28;20844;-70
2023/11/04 09:19:57;;;;;;;2.20;1.00;;;;;;;8.16;74.87;94013.38;2067516;28;20240;-72
2023/11/04 09:20:58;;;;;;;3.70;0.82;;;;;;;7.84;76.07;94027.88;2067187;28;20202;-71
2023/11/04 09:22:00;;;;;;;1.50;0.90;;;;;;;7.73;76.78;94019.25;2067761;28;20198;-71
2023/11/04 09:23:01;;;;;;;1.63;0.88;;;;;;;7.62;77.58;94018.28;2067361;28;20245;-71
2023/11/04 09:24:03;;;;;;;2.88;0.90;;;;;;;7.61;77.80;94014.03;2066806;28;20198;-71
2023/11/04 09:25:06;;;;;;;3.92;1.20;;;;;;;7.60;77.49;94016.75;2068904;28;20248;-72
2023/11/04 09:26:09;;;;;;;2.42;0.98;;;;;;;7.33;78.01;94020.44;2068015;28;20190;-71
2023/11/04 09:27:10;;;;;;;3.95;0.90;;;;;;;7.38;77.89;94018.34;2068158;28;20201;-71
2023/11/04 09:28:12;;;;;;;2.75;0.85;;;;;;;7.39;78.60;94006.16;2067794;28;20242;-70
2023/11/04 09:29:13;;;;;;;3.17;0.88;;;;;;;7.48;78.49;94000.31;2067998;28;20210;-71
2023/11/04 09:30:16;;;;;;;3.45;0.98;;;;;;;7.53;77.91;94006.00;2066851;28;20229;-71
2023/11/04 09:31:17;;;;;;;2.20;0.85;;;;;;;7.59;77.69;94008.13;2066643;28;20202;-71
2023/11/04 09:32:20;;;;;;;1.88;0.80;;;;;;;7.78;77.34;94009.31;2067564;28;20204;-71
2023/11/04 09:33:22;;;;;;;2.95;1.10;;;;;;;7.95;76.25;94001.09;2064903;28;20272;-71
2023/11/04 09:34:24;;;;;;;1.42;0.80;;;;;;;8.27;76.41;94004.75;2066498;28;20197;-71
2023/11/04 09:35:26;;;;;;;6.97;4.28;;;;;;;8.53;75.87;93996.72;2066950;28;20252;-66
2023/11/04 09:36:28;;;;;;;30.90;10.93;;;;;;;8.67;74.42;93991.22;2066990;28;20233;-71
2023/11/04 09:37:29;;;;;;;74.93;40.10;;;;;;;8.85;73.60;93991.56;2066544;28;20202;-71
2023/11/04 09:38:32;;;;;;;25.65;16.35;;;;;;;9.23;72.72;94000.66;2067573;28;20535;-72
2023/11/04 09:39:33;;;;;;;3.00;1.10;;;;;;;9.43;71.52;93982.56;2065258;28;20257;-73
2023/11/04 09:40:35;;;;;;;1.77;0.80;;;;;;;10.16;70.18;93985.16;2067391;28;20193;-72
2023/11/04 09:41:36;;;;;;;1.92;0.70;;;;;;;10.17;69.62;93993.81;2068700;28;20282;-72
2023/11/04 09:42:39;;;;;;;3.70;0.85;;;;;;;10.42;68.04;93992.56;2067474;28;20233;-71
2023/11/04 09:43:41;;;;;;;1.98;0.90;;;;;;;10.88;67.39;93991.19;2065212;28;20190;-72
2023/11/04 09:44:43;;;;;;;4.45;1.05;;;;;;;11.03;66.21;93988.97;2068899;28;20190;-72
2023/11/04 09:45:45;;;;;;;1.83;0.80;;;;;;;11.78;64.38;93980.53;2066401;28;20194;-72
2023/11/04 09:46:47;;;;;;;4.43;0.88;;;;;;;12.31;62.95;93975.75;2067446;28;20229;-72
2023/11/04 09:47:48;;;;;;;1.60;0.75;;;;;;;12.56;62.66;93976.88;2068958;28;20275;-71
2023/11/04 09:48:51;;;;;;;2.15;0.90;;;;;;;12.36;62.11;93971.72;2069745;28;20205;-72
2023/11/04 09:49:53;;;;;;;11.13;1.02;;;;;;;11.77;63.38;93968.47;2067263;28;20292;-72
2023/11/04 09:50:59;;;;;;;1.42;0.80;;;;;;;12.52;61.84;93965.88;2068453;28;20206;-72
2023/11/04 09:52:02;;;;;;;4.72;0.82;;;;;;;12.52;62.46;93962.41;2067192;28;20201;-72
2023/11/04 09:53:13;;;;;;;1.58;0.80;;;;;;;12.61;62.32;93960.72;2066943;28;20277;-72
2023/11/04 09:54:16;;;;;;;1.77;0.77;;;;;;;12.29;62.25;93954.13;2067420;28;20199;-72
2023/11/04 09:55:18;;;;;;;4.43;1.00;;;;;;;11.35;64.69;93953.09;2067012;28;20210;-72
2023/11/04 09:56:22;;;;;;;1.50;0.82;;;;;;;10.57;67.44;93952.09;2074686;28;20221;-72
2023/11/04 09:57:24;;;;;;;2.58;0.75;;;;;;;10.06;68.11;93958.22;2067185;28;20207;-72
2023/11/04 09:58:26;;;;;;;1.67;0.77;;;;;;;9.64;69.41;93953.91;2066820;28;20223;-72
2023/11/04 09:59:29;;;;;;;4.60;0.90;;;;;;;9.17;71.05;93954.28;2066697;28;20195;-72
2023/11/04 10:00:32;;;;;;;1.52;0.77;;;;;;;9.11;72.14;93941.78;2066790;28;20531;-72
2023/11/04 10:01:34;;;;;;;2.03;0.80;;;;;;;9.09;72.48;93948.88;2068765;28;20708;-72
2023/11/04 10:02:36;;;;;;;1.52;0.73;;;;;;;9.01;72.79;93946.09;2068080;28;20605;-71
2023/11/04 10:03:38;;;;;;;2.65;0.90;;;;;;;8.90;73.82;93946.94;2068680;28;20197;-72
2023/11/04 10:04:40;;;;;;;3.80;0.95;;;;;;;9.02;73.88;93942.53;2067957;28;20744;-72
2023/11/04 10:05:44;;;;;;;4.00;0.80;;;;;;;8.97;74.12;93941.09;2067180;28;21077;-72
2023/11/04 10:06:45;;;;;;;2.97;0.90;;;;;;;9.07;74.15;93932.56;2066743;28;21050;-72
2023/11/04 10:07:47;;;;;;;2.08;0.80;;;;;;;9.22;74.13;93933.06;2064807;28;20225;-72
2023/11/04 10:08:49;;;;;;;2.90;0.88;;;;;;;8.92;73.49;93930.25;2066710;28;20206;-72
2023/11/04 10:09:50;;;;;;;1.40;0.80;;;;;;;8.43;74.90;93918.56;2066614;28;20721;-72
2023/11/04 10:10:53;;;;;;;2.42;1.20;;;;;;;8.56;75.49;93923.63;2066614;28;20205;-71
2023/11/04 10:11:55;;;;;;;8.65;3.45;;;;;;;8.52;75.25;93917.88;2065812;28;20198;-70
2023/11/04 10:12:56;;;;;;;2.33;1.13;;;;;;;8.45;75.79;93921.88;2066337;28;20685;-71
2023/11/04 10:13:59;;;;;;;2.75;0.90;;;;;;;8.07;75.99;93904.94;2066704;28;20213;-70
2023/11/04 10:15:00;;;;;;;1.20;0.70;;;;;;;7.90;76.88;93908.81;2066504;28;20229;-70
2023/11/04 10:16:05;;;;;;;1.52;0.80;;;;;;;8.07;77.30;93899.72;2066685;28;20271;-70
2023/11/04 10:17:07;;;;;;;1.98;0.70;;;;;;;7.99;77.06;93906.34;2066671;28;20293;-70
2023/11/04 10:18:08;;;;;;;1.67;0.85;;;;;;;8.02;77.72;93902.69;2065171;28;20233;-69
2023/11/04 10:19:10;;;;;;;1.67;0.80;;;;;;;7.85;76.87;93901.41;2065892;28;20202;-70
2023/11/04 10:20:14;;;;;;;2.42;0.80;;;;;;;7.69;77.52;93891.34;2067416;28;20641;-70
2023/11/04 10:21:19;;;;;;;1.50;0.80;;;;;;;7.67;78.09;93890.66;2066331;28;20418;-70
2023/11/04 10:22:20;;;;;;;1.20;0.80;;;;;;;7.48;77.81;93891.25;2066257;28;20226;-70
2023/11/04 10:23:22;;;;;;;1.50;0.80;;;;;;;7.45;77.90;93892.31;2063016;28;20249;-70
2023/11/04 10:24:24;;;;;;;6.97;0.70;;;;;;;7.38;78.52;93887.69;2063488;28;20204;-69
2023/11/04 10:25:26;;;;;;;2.95;0.80;;;;;;;7.41;78.09;93883.09;2063606;28;20197;-70
2023/11/04 10:26:28;;;;;;;3.53;0.70;;;;;;;7.41;77.98;93887.47;2067782;28;20197;-70
2023/11/04 10:27:29;;;;;;;2.40;0.80;;;;;;;7.38;78.19;93877.28;2066019;28;20201;-68
2023/11/04 10:28:31;;;;;;;1.45;0.60;;;;;;;7.34;78.21;93874.94;2066320;28;20650;-69
2023/11/04 10:29:33;;;;;;;1.90;0.70;;;;;;;7.41;78.02;93866.69;2066540;28;20218;-69
2023/11/04 10:30:37;;;;;;;2.25;0.80;;;;;;;7.38;78.22;93865.16;2067629;28;20310;-70
2023/11/04 10:31:41;;;;;;;1.60;0.90;;;;;;;7.35;78.68;93881.78;2066592;28;20253;-69
2023/11/04 10:32:47;;;;;;;5.88;0.95;;;;;;;7.39;78.12;93871.16;2067946;28;20198;-69
2023/11/04 10:33:51;;;;;;;2.00;0.75;;;;;;;7.37;78.94;93875.66;2074084;28;20193;-70
2023/11/04 10:34:54;;;;;;;1.98;0.80;;;;;;;7.34;78.63;93863.75;2071099;28;20189;-70
2023/11/04 10:35:56;;;;;;;1.63;0.80;;;;;;;7.28;78.73;93865.03;2067796;28;20207;-70
2023/11/04 10:37:02;;;;;;;1.95;0.98;;;;;;;7.25;78.41;93869.63;2066440;28;20220;-70
2023/11/04 10:38:17;;;;;;;4.47;0.98;;;;;;;7.16;78.69;93859.00;2063800;28;20224;-69
2023/11/04 10:39:22;;;;;;;2.03;0.70;;;;;;;7.18;79.08;93866.66;2063359;28;20297;-70
2023/11/04 10:40:24;;;;;;;1.50;0.70;;;;;;;7.03;79.37;93855.66;2067031;28;20194;-70
2023/11/04 10:41:48;;;;;;;1.83;0.75;;;;;;;7.11;79.15;93847.31;2066757;28;20202;-70
2023/11/04 10:42:57;;;;;;;3.13;0.70;;;;;;;7.10;78.94;93848.28;2065529;28;20283;-61
2023/11/04 10:44:06;;;;;;;1.17;0.70;;;;;;;7.12;79.50;93851.56;2067408;28;20221;-60
2023/11/04 10:45:28;;;;;;;2.33;0.80;;;;;;;7.17;79.42;93850.28;2064842;28;20560;-60
2023/11/04 10:46:42;;;;;;;1.45;0.80;;;;;;;7.16;79.39;93840.00;2067929;28;20233;-61
2023/11/04 10:48:03;;;;;;;1.23;0.70;;;;;;;7.13;79.76;93843.66;2067980;28;20197;-60
2023/11/04 10:49:18;;;;;;;2.35;0.70;;;;;;;7.12;79.71;93828.19;2066114;28;20205;-60
2023/11/04 10:50:25;;;;;;;1.40;0.70;;;;;;;7.20;79.64;93836.25;2066955;28;20211;-61
2023/11/04 10:51:41;;;;;;;1.67;0.77;;;;;;;7.18;79.19;93836.34;2067898;28;20496;-60
2023/11/04 10:52:50;;;;;;;9.35;1.08;;;;;;;7.24;79.25;93835.06;2069586;28;20280;-61
2023/11/04 10:54:16;;;;;;;1.50;0.90;;;;;;;7.25;79.07;93834.13;2069787;28;20208;-60
2023/11/04 10:55:23;;;;;;;1.95;0.80;;;;;;;7.32;78.78;93827.50;2075109;28;20200;-61
2023/11/04 10:56:36;;;;;;;1.10;0.63;;;;;;;7.42;78.90;93837.19;2068686;28;20202;-61
2023/11/04 10:57:45;;;;;;;1.80;0.70;;;;;;;7.49;78.38;93856.53;2069869;28;20202;-61
2023/11/04 10:59:08;;;;;;;2.05;0.80;;;;;;;7.44;77.97;93838.72;2064793;28;20254;-60
2023/11/04 11:00:19;;;;;;;2.10;0.85;;;;;;;7.49;78.13;93840.94;2067536;28;20255;-61
2023/11/04 11:01:23;;;;;;;1.10;0.60;;;;;;;7.55;77.63;93835.28;2063271;28;20198;-60
2023/11/04 11:02:26;;;;;;;3.05;1.00;;;;;;;7.65;77.93;93846.59;2067417;28;20220;-61
2023/11/04 11:03:28;;;;;;;1.80;0.80;;;;;;;7.57;77.35;93829.97;2064972;28;20286;-61
2023/11/04 11:10:05;;;;;;;1.38;0.70;;;;;;;7.52;77.34;93838.13;2101232;27;20583;-61
2023/11/04 11:11:17;;;;;;;2.30;0.80;;;;;;;7.45;77.63;93835.19;2095399;28;20189;-61
2023/11/04 11:12:22;;;;;;;1.88;0.70;;;;;;;7.45;77.65;93831.75;2095275;28;20218;-60
2023/11/04 11:18:35;;;;;;;1.33;0.70;;;;;;;7.28;78.05;93813.09;2083680;28;20580;-61
2023/11/04 11:19:56;;;;;;;1.38;0.80;;;;;;;7.33;78.07;93823.97;2082366;28;20197;-62
2023/11/04 11:24:48;;;;;;;1.88;0.90;;;;;;;7.32;77.85;93822.31;2084403;28;20578;-61
2023/11/04 11:25:51;;;;;;;3.05;1.00;;;;;;;7.32;78.06;93798.13;2081186;28;20193;-62
2023/11/04 11:31:27;;;;;;;1.45;0.73;;;;;;;7.37;78.07;93834.13;2091182;27;20581;-60
